createdAt,value
2018-10-16T00:00:58.897Z,29.10
2018-10-16T00:03:28.328Z,26.90
2018-10-16T00:05:57.676Z,28.87
2018-10-16T00:08:26.025Z,27.83
2018-10-16T00:10:54.405Z,27.67
2018-10-16T00:13:22.770Z,27.93
2018-10-16T00:15:51.117Z,26.97
2018-10-16T00:18:19.509Z,32.50
2018-10-16T00:20:47.848Z,29.77
2018-10-16T00:23:16.197Z,28.27
2018-10-16T00:25:44.613Z,31.87
2018-10-16T00:28:12.972Z,30.87
2018-10-16T00:30:41.311Z,35.03
2018-10-16T00:33:10.716Z,28.80
2018-10-16T00:35:39.048Z,29.33
2018-10-16T00:38:07.423Z,28.33
2018-10-16T00:40:35.792Z,31.17
2018-10-16T00:43:04.150Z,29.77
2018-10-16T00:45:32.488Z,29.83
2018-10-16T00:48:01.869Z,34.93
2018-10-16T00:50:30.217Z,32.17
2018-10-16T00:52:58.564Z,32.30
2018-10-16T00:55:26.888Z,30.33
2018-10-16T00:57:55.237Z,26.57
2018-10-16T01:00:23.580Z,32.90
2018-10-16T01:02:51.923Z,26.53
2018-10-16T01:05:21.343Z,26.90
2018-10-16T01:07:49.684Z,28.80
2018-10-16T01:10:18.048Z,29.63
2018-10-16T01:12:46.416Z,30.13
2018-10-16T01:15:14.764Z,31.87
2018-10-16T01:17:43.105Z,27.67
2018-10-16T01:20:13.156Z,25.70
2018-10-16T01:22:42.177Z,26.90
2018-10-16T01:25:11.624Z,30.73
2018-10-16T01:27:40.511Z,31.40
2018-10-16T01:30:08.998Z,40.30
2018-10-16T01:32:37.982Z,33.10
2018-10-16T01:35:07.296Z,27.10
2018-10-16T01:37:35.648Z,25.83
2018-10-16T01:40:05.364Z,27.40
2018-10-16T01:42:33.712Z,26.50
2018-10-16T01:45:02.072Z,29.60
2018-10-16T01:47:30.473Z,29.63
2018-10-16T01:49:58.816Z,29.97
2018-10-16T01:52:27.160Z,26.73
2018-10-16T01:54:55.517Z,26.50
2018-10-16T01:57:23.876Z,31.03
2018-10-16T01:59:52.292Z,28.27
2018-10-16T02:02:20.640Z,32.50
2018-10-16T02:04:48.989Z,27.70
2018-10-16T02:07:17.337Z,31.03
2018-10-16T02:09:45.688Z,31.27
2018-10-16T02:12:14.045Z,29.20
2018-10-16T02:14:42.452Z,31.80
2018-10-16T02:17:10.753Z,30.43
2018-10-16T02:19:39.105Z,33.33
2018-10-16T02:22:07.452Z,33.63
2018-10-16T02:24:36.822Z,35.77
2018-10-16T02:27:05.225Z,30.80
2018-10-16T02:29:33.576Z,28.67
2018-10-16T02:32:01.925Z,34.23
2018-10-16T02:34:30.285Z,34.00
2018-10-16T02:36:58.632Z,29.13
2018-10-16T02:39:26.968Z,28.90
2018-10-16T02:41:55.313Z,33.40
2018-10-16T02:44:23.655Z,30.77
2018-10-16T02:46:51.992Z,36.60
2018-10-16T02:49:20.340Z,31.17
2018-10-16T02:51:48.671Z,30.07
2018-10-16T02:54:17.052Z,33.00
2018-10-16T02:56:45.384Z,33.40
2018-10-16T02:59:14.837Z,40.20
2018-10-16T03:01:43.172Z,34.80
2018-10-16T03:04:11.524Z,34.03
2018-10-16T03:06:39.861Z,34.13
2018-10-16T03:09:09.048Z,33.13
2018-10-16T03:11:37.387Z,32.57
2018-10-16T03:14:07.796Z,36.33
2018-10-16T03:16:36.145Z,34.50
2018-10-16T03:19:04.484Z,34.67
2018-10-16T03:21:32.844Z,33.77
2018-10-16T03:24:01.186Z,36.07
2018-10-16T03:26:29.529Z,37.47
2018-10-16T03:28:57.873Z,40.20
2018-10-16T03:31:26.404Z,38.37
2018-10-16T03:33:54.765Z,30.90
2018-10-16T03:36:23.098Z,38.33
2018-10-16T03:38:51.428Z,32.20
2018-10-16T03:41:19.747Z,36.90
2018-10-16T03:43:53.911Z,33.77
2018-10-16T03:46:22.236Z,34.30
2018-10-16T03:48:50.600Z,33.60
2018-10-16T03:51:18.955Z,38.60
2018-10-16T03:53:47.937Z,31.17
2018-10-16T03:56:16.313Z,34.90
2018-10-16T03:58:44.640Z,37.70
2018-10-16T04:01:12.972Z,43.73
2018-10-16T04:03:41.292Z,38.53
2018-10-16T04:06:09.640Z,39.43
2018-10-16T04:08:37.996Z,33.13
2018-10-16T04:11:06.499Z,34.40
2018-10-16T04:13:35.927Z,37.37
2018-10-16T04:16:04.284Z,36.90
2018-10-16T04:18:32.608Z,33.43
2018-10-16T04:21:00.985Z,33.20
2018-10-16T04:23:29.296Z,40.80
2018-10-16T04:25:57.743Z,37.23
2018-10-16T04:28:26.284Z,39.73
2018-10-16T04:30:54.621Z,35.70
2018-10-16T04:33:22.997Z,36.73
2018-10-16T04:35:51.337Z,45.93
2018-10-16T04:38:19.688Z,36.93
2018-10-16T04:40:49.125Z,43.30
2018-10-16T04:43:17.589Z,32.03
2018-10-16T04:45:45.944Z,34.70
2018-10-16T04:48:14.360Z,36.03
2018-10-16T04:50:42.826Z,36.57
2018-10-16T04:53:11.182Z,41.80
2018-10-16T04:55:39.504Z,42.00
2018-10-16T04:58:07.976Z,41.20
2018-10-16T05:00:36.359Z,39.73
2018-10-16T05:03:05.050Z,37.40
2018-10-16T05:05:33.441Z,39.27
2018-10-16T05:08:01.809Z,43.30
2018-10-16T05:10:30.278Z,37.33
2018-10-16T05:12:58.598Z,39.47
2018-10-16T05:15:28.148Z,34.63
2018-10-16T05:17:58.629Z,36.50
2018-10-16T05:20:27.161Z,36.23
2018-10-16T05:22:56.424Z,40.37
2018-10-16T05:25:25.744Z,35.73
2018-10-16T05:27:55.940Z,36.37
2018-10-16T05:30:24.326Z,40.20
2018-10-16T05:32:52.756Z,40.63
2018-10-16T05:35:21.121Z,44.37
2018-10-16T05:37:49.473Z,38.00
2018-10-16T05:40:17.846Z,42.40
2018-10-16T05:42:46.185Z,42.60
2018-10-16T05:45:14.757Z,38.57
2018-10-16T05:47:44.348Z,42.73
2018-10-16T05:50:12.764Z,39.87
2018-10-16T05:52:41.111Z,41.10
2018-10-16T05:55:10.008Z,39.43
2018-10-16T05:57:38.352Z,49.00
2018-10-16T06:00:18.788Z,42.13
2018-10-16T06:02:47.792Z,42.50
2018-10-16T06:05:16.919Z,42.80
2018-10-16T06:07:45.296Z,36.73
2018-10-16T06:10:14.104Z,42.00
2018-10-16T06:12:43.197Z,54.87
2018-10-16T06:15:12.876Z,41.80
2018-10-16T06:17:45.436Z,38.40
2018-10-16T06:20:14.031Z,46.73
2018-10-16T06:22:43.133Z,43.90
2018-10-16T06:25:12.564Z,42.60
2018-10-16T06:27:42.178Z,41.73
2018-10-16T06:30:10.839Z,44.43
2018-10-16T06:32:39.389Z,46.50
2018-10-16T06:35:08.553Z,43.73
2018-10-16T06:37:36.932Z,42.13
2018-10-16T06:40:05.913Z,41.20
2018-10-16T06:42:34.340Z,39.50
2018-10-16T06:45:03.867Z,38.87
2018-10-16T06:47:32.288Z,40.80
2018-10-16T06:50:00.647Z,46.97
2018-10-16T06:52:29.021Z,42.37
2018-10-16T06:54:57.499Z,38.70
2018-10-16T06:57:25.818Z,44.50
2018-10-16T06:59:54.181Z,40.80
2018-10-16T07:02:22.561Z,43.53
2018-10-16T07:04:50.913Z,44.48
2018-10-16T07:07:19.412Z,45.53
2018-10-16T07:09:47.628Z,40.87
2018-10-16T07:12:15.993Z,46.87
2018-10-16T07:14:44.373Z,41.90
2018-10-16T07:17:12.721Z,42.77
2018-10-16T07:19:41.120Z,44.37
2018-10-16T07:22:11.045Z,44.00
2018-10-16T07:24:39.397Z,40.70
2018-10-16T07:27:07.917Z,40.40
2018-10-16T07:29:36.593Z,42.50
2018-10-16T07:32:05.425Z,46.60
2018-10-16T07:34:34.377Z,41.30
2018-10-16T07:37:03.797Z,52.57
2018-10-16T07:39:32.228Z,50.00
2018-10-16T07:42:01.670Z,43.63
2018-10-16T07:44:30.122Z,47.37
2018-10-16T07:46:58.641Z,49.20
2018-10-16T07:49:26.985Z,58.03
2018-10-16T07:51:57.368Z,46.40
2018-10-16T07:54:25.721Z,52.73
2018-10-16T07:56:54.056Z,56.60
2018-10-16T07:59:22.429Z,67.17
2018-10-16T08:01:51.907Z,59.53
2018-10-16T08:04:20.320Z,57.43
2018-10-16T08:06:48.695Z,62.60
2018-10-16T08:09:18.152Z,64.43
2018-10-16T08:11:47.616Z,65.73
2018-10-16T08:14:17.253Z,59.40
2018-10-16T08:16:46.936Z,63.10
2018-10-16T08:19:15.644Z,64.43
2018-10-16T08:21:44.815Z,57.88
2018-10-16T08:24:14.252Z,55.40
2018-10-16T08:26:42.700Z,48.10
2018-10-16T08:29:10.996Z,52.83
2018-10-16T08:31:39.624Z,61.43
2018-10-16T08:34:08.084Z,50.43
2018-10-16T08:36:36.489Z,52.60
2018-10-16T08:39:13.900Z,49.37
2018-10-16T08:44:13.117Z,48.27
2018-10-16T08:46:52.780Z,51.73
2018-10-16T08:49:32.337Z,53.03
2018-10-16T08:52:00.704Z,54.63
2018-10-16T08:54:29.065Z,51.43
2018-10-16T08:56:57.426Z,49.13
2018-10-16T08:59:25.809Z,55.93
2018-10-16T09:01:54.236Z,54.17
2018-10-16T09:04:22.613Z,54.67
2018-10-16T09:06:51.030Z,50.60
2018-10-16T09:09:19.576Z,45.83
2018-10-16T09:11:50.090Z,45.97
2018-10-16T09:14:18.905Z,45.63
2018-10-16T09:16:47.576Z,55.33
2018-10-16T09:19:15.972Z,48.80
2018-10-16T09:21:44.440Z,52.17
2018-10-16T09:24:12.813Z,47.13
2018-10-16T09:26:41.217Z,53.50
2018-10-16T09:29:09.743Z,54.10
2018-10-16T09:31:41.869Z,45.17
2018-10-16T09:34:10.536Z,48.27
2018-10-16T09:36:38.907Z,48.20
2018-10-16T09:39:10.410Z,47.03
2018-10-16T09:41:38.759Z,43.33
2018-10-16T09:44:07.146Z,45.83
2018-10-16T09:46:35.514Z,43.70
2018-10-16T09:49:03.910Z,61.77
2018-10-16T09:51:32.299Z,42.07
2018-10-16T09:54:02.041Z,59.87
2018-10-16T09:56:31.649Z,45.90
2018-10-16T09:59:00.085Z,46.57
2018-10-16T10:01:33.697Z,44.67
2018-10-16T10:04:02.177Z,56.87
2018-10-16T10:06:31.699Z,45.57
2018-10-16T10:09:00.073Z,46.00
2018-10-16T10:11:28.486Z,49.60
2018-10-16T10:13:56.861Z,45.27
2018-10-16T10:16:25.233Z,57.37
2018-10-16T10:18:53.701Z,36.10
2018-10-16T10:21:22.075Z,44.33
2018-10-16T10:23:50.476Z,41.27
2018-10-16T10:26:18.897Z,37.27
2018-10-16T10:28:47.246Z,28.13
2018-10-16T10:31:15.604Z,39.53
2018-10-16T10:33:44.045Z,30.07
2018-10-16T10:36:12.622Z,24.70
2018-10-16T10:38:41.114Z,20.27
2018-10-16T10:41:09.666Z,26.57
2018-10-16T10:43:38.022Z,25.90
2018-10-16T10:46:06.837Z,21.93
2018-10-16T10:48:35.196Z,23.80
2018-10-16T10:51:03.701Z,22.03
2018-10-16T10:53:31.918Z,24.13
2018-10-16T10:56:00.284Z,23.90
2018-10-16T10:58:28.637Z,24.53
2018-10-16T11:00:57.008Z,23.13
2018-10-16T11:03:25.488Z,26.00
2018-10-16T11:05:53.748Z,20.93
2018-10-16T11:08:22.108Z,22.53
2018-10-16T11:10:51.508Z,23.23
2018-10-16T11:13:19.864Z,30.40
2018-10-16T11:15:48.369Z,24.80
2018-10-16T11:18:17.724Z,25.63
2018-10-16T11:20:46.093Z,21.17
2018-10-16T11:23:14.454Z,18.00
2018-10-16T11:25:42.813Z,14.57
2018-10-16T11:28:11.180Z,10.67
2018-10-16T11:30:39.557Z,12.73
2018-10-16T11:33:07.976Z,15.60
2018-10-16T11:35:36.290Z,14.80
2018-10-16T11:38:04.761Z,13.23
2018-10-16T11:40:33.141Z,21.57
2018-10-16T11:43:01.484Z,20.10
2018-10-16T11:45:29.856Z,19.77
2018-10-16T11:47:58.217Z,23.50
2018-10-16T11:50:26.613Z,23.90
2018-10-16T11:52:54.978Z,28.80
2018-10-16T11:55:23.353Z,26.47
2018-10-16T11:57:51.694Z,23.97
2018-10-16T12:00:20.102Z,29.23
2018-10-16T12:02:48.876Z,29.00
2018-10-16T12:05:17.236Z,23.73
2018-10-16T12:07:45.593Z,23.33
2018-10-16T12:10:15.988Z,24.60
2018-10-16T12:12:44.333Z,24.00
2018-10-16T12:15:12.680Z,24.97
2018-10-16T12:17:49.120Z,22.67
2018-10-16T12:20:20.552Z,31.73
2018-10-16T12:22:48.910Z,27.90
2018-10-16T12:25:17.413Z,25.63
2018-10-16T12:27:45.728Z,28.23
2018-10-16T12:30:16.121Z,28.17
2018-10-16T12:32:44.588Z,26.77
2018-10-16T12:35:12.929Z,28.00
2018-10-16T12:37:41.270Z,31.93
2018-10-16T12:40:10.936Z,27.23
2018-10-16T12:42:39.447Z,29.27
2018-10-16T12:45:08.453Z,31.23
2018-10-16T12:47:36.811Z,26.80
2018-10-16T12:50:05.533Z,27.60
2018-10-16T12:52:33.874Z,27.70
2018-10-16T12:55:02.277Z,28.60
2018-10-16T12:57:30.681Z,27.40
2018-10-16T12:59:59.076Z,26.07
2018-10-16T13:02:27.444Z,34.90
2018-10-16T13:04:57.812Z,30.50
2018-10-16T13:07:35.284Z,28.13
2018-10-16T13:10:04.549Z,30.20
2018-10-16T13:12:32.888Z,29.93
2018-10-16T13:15:02.347Z,34.73
2018-10-16T13:17:31.797Z,28.77
2018-10-16T13:20:00.214Z,29.47
2018-10-16T13:22:28.580Z,34.63
2018-10-16T13:24:56.966Z,33.57
2018-10-16T13:27:25.369Z,39.33
2018-10-16T13:29:53.799Z,35.10
2018-10-16T13:32:22.166Z,36.87
2018-10-16T13:34:50.678Z,37.77
2018-10-16T13:37:19.090Z,31.77
2018-10-16T13:39:47.453Z,37.93
2018-10-16T13:42:15.889Z,34.07
2018-10-16T13:44:45.329Z,38.60
2018-10-16T13:47:13.701Z,38.30
2018-10-16T13:49:42.063Z,31.03
2018-10-16T13:52:10.478Z,42.70
2018-10-16T13:54:38.849Z,39.03
2018-10-16T13:57:07.224Z,42.77
2018-10-16T13:59:35.661Z,44.40
2018-10-16T14:02:04.248Z,47.83
2018-10-16T14:04:32.553Z,54.47
2018-10-16T14:07:00.925Z,41.70
2018-10-16T14:09:29.285Z,49.47
2018-10-16T14:11:58.673Z,45.03
2018-10-16T14:14:27.033Z,42.73
2018-10-16T14:16:55.391Z,46.63
2018-10-16T14:19:23.746Z,47.70
2018-10-16T14:21:52.181Z,51.23
2018-10-16T14:24:20.531Z,44.87
2018-10-16T14:26:48.952Z,52.97
2018-10-16T14:29:18.381Z,49.33
2018-10-16T14:31:46.736Z,50.30
2018-10-16T14:34:15.108Z,55.93
2018-10-16T14:36:43.722Z,66.90
2018-10-16T14:39:12.826Z,53.80
2018-10-16T14:41:42.277Z,52.33
2018-10-16T14:44:11.729Z,57.43
2018-10-16T14:46:40.037Z,56.23
2018-10-16T14:49:09.417Z,58.63
2018-10-16T14:51:41.593Z,52.50
2018-10-16T14:54:09.969Z,60.30
2018-10-16T14:56:38.337Z,62.40
2018-10-16T14:59:06.711Z,68.37
2018-10-16T15:01:35.141Z,57.57
2018-10-16T15:04:03.498Z,63.73
2018-10-16T15:06:31.848Z,60.53
2018-10-16T15:09:01.217Z,69.00
2018-10-16T15:11:29.689Z,78.43
2018-10-16T15:13:58.043Z,66.30
2018-10-16T15:16:27.564Z,68.10
2018-10-16T15:18:55.913Z,65.37
2018-10-16T15:21:24.301Z,60.10
2018-10-16T15:23:52.747Z,69.90
2018-10-16T15:26:22.088Z,66.10
2018-10-16T15:28:50.444Z,66.63
2018-10-16T15:31:18.800Z,69.60
2018-10-16T15:33:47.145Z,66.77
2018-10-16T15:36:15.515Z,67.57
2018-10-16T15:38:43.876Z,63.17
2018-10-16T15:41:12.249Z,66.37
2018-10-16T15:43:40.608Z,68.60
2018-10-16T15:46:09.073Z,79.63
2018-10-16T15:48:37.372Z,66.53
2018-10-16T15:51:05.745Z,67.20
2018-10-16T15:53:34.130Z,63.00
2018-10-16T15:56:02.529Z,72.10
2018-10-16T15:58:30.984Z,74.10
2018-10-16T16:00:59.409Z,73.20
2018-10-16T16:03:27.816Z,72.30
2018-10-16T16:05:56.207Z,77.47
2018-10-16T16:08:24.820Z,81.80
2018-10-16T16:10:53.150Z,76.43
2018-10-16T16:13:21.502Z,80.00
2018-10-16T16:15:51.878Z,75.40
2018-10-16T16:18:20.365Z,76.20
2018-10-16T16:20:48.623Z,78.83
2018-10-16T16:23:17.022Z,81.67
2018-10-16T16:25:45.402Z,74.50
2018-10-16T16:28:13.808Z,77.93
2018-10-16T16:30:44.145Z,84.93
2018-10-16T16:33:12.495Z,73.90
2018-10-16T16:35:40.870Z,78.87
2018-10-16T16:38:10.371Z,86.17
2018-10-16T16:40:38.685Z,89.20
2018-10-16T16:43:07.060Z,88.10
2018-10-16T16:45:35.430Z,82.37
2018-10-16T16:48:05.760Z,80.73
2018-10-16T16:50:34.137Z,82.00
2018-10-16T16:53:04.606Z,76.57
2018-10-16T16:55:32.949Z,80.63
2018-10-16T16:58:01.321Z,80.50
2018-10-16T17:00:29.694Z,78.20
2018-10-16T17:02:58.053Z,73.23
2018-10-16T17:05:26.453Z,80.23
2018-10-16T17:07:54.842Z,74.63
2018-10-16T17:10:23.169Z,76.33
2018-10-16T17:12:55.553Z,82.03
2018-10-16T17:15:23.892Z,83.20
2018-10-16T17:17:52.258Z,78.23
2018-10-16T17:20:20.629Z,82.30
2018-10-16T17:22:48.985Z,86.43
2018-10-16T17:25:19.478Z,74.00
2018-10-16T17:27:48.749Z,79.17
2018-10-16T17:30:17.692Z,80.87
2018-10-16T17:32:46.519Z,79.57
2018-10-16T17:35:15.309Z,84.33
2018-10-16T17:37:43.777Z,93.13
2018-10-16T17:40:14.526Z,81.40
2018-10-16T17:42:42.952Z,83.53
2018-10-16T17:45:16.272Z,86.70
2018-10-16T17:47:46.005Z,86.93
2018-10-16T17:50:16.184Z,91.80
2018-10-16T17:52:44.556Z,88.17
2018-10-16T17:55:13.827Z,84.87
2018-10-16T17:57:42.282Z,92.80
2018-10-16T18:00:15.807Z,100.10
2018-10-16T18:02:44.641Z,94.75
2018-10-16T18:05:13.623Z,93.47
2018-10-16T18:07:42.537Z,92.87
2018-10-16T18:10:10.927Z,75.53
2018-10-16T18:12:41.399Z,90.27
2018-10-16T18:15:11.793Z,85.17
2018-10-16T18:17:40.930Z,91.07
2018-10-16T18:20:10.868Z,84.10
2018-10-16T18:22:39.292Z,87.07
2018-10-16T18:25:09.078Z,101.00
2018-10-16T18:27:37.443Z,97.07
2018-10-16T18:30:08.309Z,101.40
2018-10-16T18:32:36.704Z,91.63
2018-10-16T18:35:05.077Z,82.63
2018-10-16T18:37:33.638Z,85.50
2018-10-16T18:40:02.042Z,93.47
2018-10-16T18:42:30.353Z,89.53
2018-10-16T18:44:58.786Z,81.60
2018-10-16T18:47:27.500Z,94.70
2018-10-16T18:49:55.924Z,90.87
2018-10-16T18:52:24.270Z,98.83
2018-10-16T18:54:52.592Z,97.83
2018-10-16T18:57:21.944Z,99.97
2018-10-16T18:59:50.298Z,91.53
2018-10-16T19:02:18.679Z,90.17
2018-10-16T19:04:47.010Z,101.30
2018-10-16T19:07:15.340Z,82.53
2018-10-16T19:09:43.704Z,84.00
2018-10-16T19:12:12.156Z,97.10
2018-10-16T19:14:40.496Z,79.50
2018-10-16T19:17:08.856Z,88.20
2018-10-16T19:19:37.240Z,96.23
2018-10-16T19:22:06.621Z,99.30
2018-10-16T19:24:34.960Z,90.07
2018-10-16T19:27:03.439Z,81.43
2018-10-16T19:29:31.765Z,89.40
2018-10-16T19:32:00.129Z,82.57
2018-10-16T19:34:28.496Z,92.53
2018-10-16T19:36:56.869Z,82.03
2018-10-16T19:39:25.229Z,90.03
2018-10-16T19:41:53.646Z,96.23
2018-10-16T19:44:22.001Z,104.23
2018-10-16T19:46:50.362Z,99.07
2018-10-16T19:49:18.831Z,83.13
2018-10-16T19:51:47.272Z,100.73
2018-10-16T19:54:15.637Z,85.43
2018-10-16T19:56:45.051Z,89.70
2018-10-16T19:59:14.405Z,92.60
2018-10-16T20:01:42.821Z,88.87
2018-10-16T20:04:11.212Z,89.87
2018-10-16T20:06:39.568Z,97.80
2018-10-16T20:09:09.648Z,93.23
2018-10-16T20:11:38.001Z,89.67
2018-10-16T20:14:06.484Z,90.40
2018-10-16T20:16:34.750Z,86.10
2018-10-16T20:19:03.137Z,88.80
2018-10-16T20:21:31.502Z,84.43
2018-10-16T20:23:59.863Z,81.10
2018-10-16T20:26:28.269Z,107.10
2018-10-16T20:28:57.788Z,82.43
2018-10-16T20:31:26.149Z,80.87
2018-10-16T20:33:54.538Z,85.60
2018-10-16T20:36:22.920Z,94.30
2018-10-16T20:38:51.304Z,90.97
2018-10-16T20:41:19.791Z,88.10
2018-10-16T20:43:48.136Z,85.40
2018-10-16T20:46:16.536Z,82.00
2018-10-16T20:48:44.925Z,96.27
2018-10-16T20:51:13.264Z,101.97
2018-10-16T20:53:42.913Z,89.30
2018-10-16T20:56:11.497Z,101.77
2018-10-16T20:58:40.889Z,88.30
2018-10-16T21:01:10.407Z,83.13
2018-10-16T21:03:38.836Z,90.57
2018-10-16T21:06:07.575Z,83.20
2018-10-16T21:08:35.653Z,85.93
2018-10-16T21:11:04.298Z,96.77
2018-10-16T21:13:33.659Z,93.70
2018-10-16T21:16:02.032Z,80.83
2018-10-16T21:18:30.444Z,100.23
2018-10-16T21:20:58.868Z,97.10
2018-10-16T21:23:27.245Z,81.57
2018-10-16T21:25:55.658Z,89.33
2018-10-16T21:28:24.030Z,97.17
2018-10-16T21:30:52.393Z,95.07
2018-10-16T21:33:20.863Z,89.57
2018-10-16T21:35:54.752Z,95.67
2018-10-16T21:38:24.205Z,82.93
2018-10-16T21:40:52.628Z,94.07
2018-10-16T21:43:20.961Z,91.70
2018-10-16T21:45:51.449Z,75.47
2018-10-16T21:48:19.830Z,89.27
2018-10-16T21:50:48.266Z,95.37
2018-10-16T21:53:16.677Z,92.77
2018-10-16T21:55:45.157Z,99.67
2018-10-16T21:58:13.773Z,89.07
2018-10-16T22:00:47.537Z,100.83
2018-10-16T22:03:15.916Z,99.30
2018-10-16T22:05:44.312Z,77.50
2018-10-16T22:08:12.840Z,78.20
2018-10-16T22:10:41.166Z,89.90
2018-10-16T22:13:10.100Z,84.73
2018-10-16T22:15:38.493Z,75.67
2018-10-16T22:18:06.929Z,82.53
2018-10-16T22:20:35.316Z,77.60
2018-10-16T22:23:05.104Z,87.80
2018-10-16T22:25:33.461Z,80.40
2018-10-16T22:28:01.884Z,78.67
2018-10-16T22:30:32.432Z,84.63
2018-10-16T22:33:00.796Z,86.00
2018-10-16T22:35:29.144Z,84.90
2018-10-16T22:37:57.624Z,81.13
2018-10-16T22:40:25.970Z,80.10
2018-10-16T22:42:54.385Z,77.57
2018-10-16T22:45:23.205Z,84.92
2018-10-16T22:47:51.554Z,84.37
2018-10-16T22:50:19.935Z,86.53
2018-10-16T22:52:49.688Z,67.77
2018-10-16T22:55:18.124Z,77.70
2018-10-16T22:57:46.496Z,83.73
2018-10-16T23:00:17.853Z,73.47
2018-10-16T23:02:58.996Z,73.37
2018-10-16T23:05:28.381Z,78.70
2018-10-16T23:07:56.778Z,80.90
2018-10-16T23:10:25.144Z,77.00
2018-10-16T23:12:58.988Z,78.93
2018-10-16T23:15:27.441Z,79.70
2018-10-16T23:17:55.795Z,78.43
2018-10-16T23:20:24.278Z,78.47
2018-10-16T23:22:52.682Z,72.23
2018-10-16T23:25:21.035Z,86.17
2018-10-16T23:27:49.365Z,80.03
2018-10-16T23:30:17.771Z,80.50
2018-10-16T23:32:46.436Z,75.27
2018-10-16T23:35:14.841Z,79.23
2018-10-16T23:37:43.149Z,74.00
2018-10-16T23:40:11.512Z,75.60
2018-10-16T23:42:39.968Z,82.87
2018-10-16T23:45:08.401Z,76.40
2018-10-16T23:47:36.760Z,73.30
2018-10-16T23:50:05.317Z,82.17
2018-10-16T23:52:33.696Z,75.40
2018-10-16T23:55:02.127Z,82.17
2018-10-16T23:57:30.650Z,86.40
2018-10-16T23:59:59.091Z,75.00
